Time;durP1;ratioP1;P1;durP2;ratioP2;P2;SDS_P1;SDS_P2;PMS_P1;PMS_P2;Temp;Humidity;BMP_temperature;BMP_pressure;BME280_temperature;BME280_humidity;BME280_pressure;Samples;Min_cycle;Max_cycle;Signal;HPM_P1;HPM_P2
2022/09/12 00:01:31;;;;;;;11.60;4.00;;;;;;;16.20;48.91;98561.79;25105;1313;3070884;-61
2022/09/12 00:04:01;;;;;;;8.90;3.50;;;;;;;16.16;49.65;98562.55;25112;1313;3026250;-61
2022/09/12 00:06:31;;;;;;;18.40;3.80;;;;;;;16.17;49.44;98566.34;25107;1313;3052498;-62
2022/09/12 00:09:05;;;;;;;9.60;3.10;;;;;;;16.17;49.54;98565.42;25383;1312;3026735;-61
2022/09/12 00:11:40;;;;;;;10.00;3.10;;;;;;;16.19;49.44;98567.65;25046;1313;3049444;-61
2022/09/12 00:14:11;;;;;;;16.00;4.00;;;;;;;16.24;49.13;98566.69;25079;1313;3026461;-61
2022/09/12 00:16:41;;;;;;;14.70;4.50;;;;;;;16.26;49.28;98566.48;25110;1313;3026340;-62
2022/09/12 00:19:10;;;;;;;21.70;6.80;;;;;;;16.20;50.40;98569.91;25130;1313;3027533;-62
2022/09/12 00:21:40;;;;;;;20.20;6.20;;;;;;;16.10;50.49;98571.94;25174;1313;3052456;-61
2022/09/12 00:24:10;;;;;;;15.80;6.50;;;;;;;16.02;50.76;98567.05;25118;1313;3027067;-62
2022/09/12 00:26:39;;;;;;;18.40;6.30;;;;;;;15.97;50.58;98567.53;25061;1313;3030152;-60
2022/09/12 00:29:14;;;;;;;25.30;6.60;;;;;;;15.96;51.83;98566.97;25071;1313;3026782;-62
2022/09/12 00:31:43;;;;;;;24.50;6.70;;;;;;;15.92;50.68;98569.59;25088;1313;3054587;-62
2022/09/12 00:34:12;;;;;;;23.60;6.20;;;;;;;15.89;51.67;98570.95;25150;1313;3026717;-63
2022/09/12 00:36:41;;;;;;;18.30;6.00;;;;;;;15.88;51.77;98568.98;25130;1313;3055290;-60
2022/09/12 00:39:16;;;;;;;19.00;6.20;;;;;;;15.87;51.64;98563.95;25072;1313;3026669;-62
2022/09/12 00:41:45;;;;;;;16.20;6.20;;;;;;;15.84;53.88;98561.52;25111;1313;3049503;-62
2022/09/12 00:44:15;;;;;;;22.10;6.70;;;;;;;15.76;54.89;98560.36;25091;1313;3026373;-62
2022/09/12 00:47:04;;;;;;;18.10;5.30;;;;;;;15.67;51.52;98554.69;25163;1313;3026650;-61
2022/09/12 00:49:38;;;;;;;13.80;4.40;;;;;;;15.61;50.55;98553.79;25119;1313;3049783;-64
2022/09/12 00:52:14;;;;;;;14.70;4.50;;;;;;;15.63;50.40;98555.94;25049;1313;3026289;-62
2022/09/12 00:54:47;;;;;;;18.90;5.70;;;;;;;15.61;49.95;98554.02;25120;1312;3054263;-62
2022/09/12 00:57:16;;;;;;;14.80;5.10;;;;;;;15.61;50.22;98557.70;25112;1313;3026284;-62
2022/09/12 00:59:48;;;;;;;15.50;4.30;;;;;;;15.67;50.38;98557.30;25072;1313;3027154;-61
2022/09/12 01:02:17;;;;;;;15.50;4.40;;;;;;;15.74;51.02;98555.20;25097;1313;3026559;-60
2022/09/12 01:04:46;;;;;;;11.10;3.20;;;;;;;15.75;51.63;98552.00;25105;1312;3026498;-61
2022/09/12 01:07:16;;;;;;;12.00;3.60;;;;;;;15.78;52.03;98551.86;25076;1316;3051422;-62
2022/09/12 01:09:46;;;;;;;11.60;3.40;;;;;;;15.84;51.61;98550.40;25094;1313;3027131;-60
2022/09/12 01:12:15;;;;;;;20.20;4.50;;;;;;;15.85;51.94;98553.16;25054;1313;3026940;-60
2022/09/12 01:14:45;;;;;;;9.50;3.10;;;;;;;15.79;51.61;98552.08;25010;1313;3052371;-61
2022/09/12 01:17:14;;;;;;;12.60;5.00;;;;;;;15.82;51.69;98546.91;25120;1313;3026476;-61
2022/09/12 01:19:46;;;;;;;14.20;4.00;;;;;;;15.83;52.02;98550.17;25115;1313;3055436;-61
2022/09/12 01:22:50;;;;;;;14.30;3.80;;;;;;;15.78;52.00;98554.30;25128;1313;3026781;-62
2022/09/12 01:25:37;;;;;;;11.70;3.80;;;;;;;15.79;51.67;98550.48;25091;1313;3055946;-60
2022/09/12 01:28:12;;;;;;;11.10;3.70;;;;;;;15.81;51.71;98551.05;25118;1313;3053773;-59
2022/09/12 01:30:55;;;;;;;11.00;4.20;;;;;;;15.79;51.82;98547.70;25103;1313;3070849;-62
2022/09/12 01:33:31;;;;;;;11.50;3.30;;;;;;;15.80;52.85;98542.50;25116;1313;3049308;-60
2022/09/12 01:36:31;;;;;;;14.60;3.60;;;;;;;15.85;53.24;98543.79;25121;1313;3055017;-59
2022/09/12 01:39:02;;;;;;;8.30;4.40;;;;;;;15.87;53.22;98546.42;25103;1313;3052814;-60
2022/09/12 01:41:48;;;;;;;12.00;3.30;;;;;;;15.85;53.11;98545.58;25163;1313;3027598;-62
2022/09/12 01:44:36;;;;;;;8.60;3.60;;;;;;;15.82;53.14;98545.67;25132;1313;3049564;-60
2022/09/12 01:47:15;;;;;;;8.80;3.00;;;;;;;15.83;53.35;98542.04;25080;1313;3055946;-60
2022/09/12 01:50:00;;;;;;;12.90;3.50;;;;;;;15.79;53.35;98541.40;25022;1315;3051260;-58
2022/09/12 01:52:48;;;;;;;11.60;3.50;;;;;;;15.75;53.45;98538.33;25093;1313;3070818;-60
2022/09/12 01:55:24;;;;;;;15.20;3.40;;;;;;;15.77;53.67;98537.16;25078;1313;3051981;-58
2022/09/12 01:58:04;;;;;;;12.40;3.10;;;;;;;15.75;54.62;98536.48;25065;1313;3056500;-60
2022/09/12 02:00:41;;;;;;;12.40;3.60;;;;;;;15.74;54.35;98540.57;25148;1312;3051316;-60
2022/09/12 02:03:13;;;;;;;9.10;3.60;;;;;;;15.70;54.39;98536.71;25084;1313;3057570;-59
2022/09/12 02:05:58;;;;;;;8.80;3.40;;;;;;;15.71;54.11;98537.89;25102;1313;3027011;-60
2022/09/12 02:08:31;;;;;;;13.20;3.90;;;;;;;15.71;53.76;98536.45;25115;1313;3053415;-61
2022/09/12 02:11:04;;;;;;;14.70;3.90;;;;;;;15.72;54.32;98532.84;25105;1313;3026210;-62
2022/09/12 02:13:46;;;;;;;16.50;4.00;;;;;;;15.69;55.06;98531.38;25063;1315;3026218;-62
2022/09/12 02:16:30;;;;;;;15.70;4.20;;;;;;;15.65;55.83;98530.48;25064;1313;3051358;-60
2022/09/12 02:19:04;;;;;;;9.50;2.90;;;;;;;15.68;55.93;98527.76;25123;1316;3051702;-59
2022/09/12 02:21:34;;;;;;;10.60;3.40;;;;;;;15.76;56.30;98524.27;25112;1313;3055327;-59
2022/09/12 02:24:03;;;;;;;6.40;3.00;;;;;;;15.78;56.63;98523.02;25026;1315;3026824;-61
2022/09/12 02:26:34;;;;;;;10.20;2.60;;;;;;;15.79;58.31;98517.52;25086;1315;3055385;-61
2022/09/12 02:29:03;;;;;;;9.40;3.00;;;;;;;15.79;58.95;98518.90;25098;1316;3027939;-60
2022/09/12 02:31:45;;;;;;;9.50;3.80;;;;;;;15.81;60.77;98516.33;25065;1313;3026790;-60
2022/09/12 02:34:21;;;;;;;12.80;3.10;;;;;;;15.85;60.13;98515.18;25082;1316;3052211;-63
2022/09/12 02:37:02;;;;;;;9.50;4.10;;;;;;;15.90;61.16;98512.95;25070;1313;3051998;-61
2022/09/12 02:39:32;;;;;;;11.40;3.60;;;;;;;15.88;62.60;98516.28;25106;1313;3056962;-62
2022/09/12 02:42:01;;;;;;;9.40;3.20;;;;;;;15.84;63.35;98515.87;25048;1315;3026782;-62
2022/09/12 02:44:31;;;;;;;15.20;4.00;;;;;;;15.83;63.34;98515.42;25037;1316;3026800;-60
2022/09/12 02:47:06;;;;;;;15.50;4.20;;;;;;;15.85;64.77;98514.50;25110;1313;3026334;-60
2022/09/12 02:49:35;;;;;;;7.60;2.80;;;;;;;15.89;66.23;98516.75;25033;1313;3051772;-60
2022/09/12 02:52:04;;;;;;;5.70;2.90;;;;;;;16.55;65.30;98516.58;25106;1313;3026895;-63
2022/09/12 02:54:33;;;;;;;19.50;4.20;;;;;;;17.16;64.90;98514.69;25025;1313;3058220;-61
2022/09/12 02:57:02;;;;;;;8.10;3.00;;;;;;;17.34;63.80;98521.22;25089;1313;3026639;-59
2022/09/12 02:59:31;;;;;;;8.30;3.60;;;;;;;17.33;63.38;98521.93;25094;1313;3054902;-61
2022/09/12 03:02:12;;;;;;;9.80;3.60;;;;;;;17.26;62.25;98519.52;25091;1316;3026547;-62
2022/09/12 03:04:52;;;;;;;10.00;4.40;;;;;;;17.09;59.00;98524.95;25049;1313;3055020;-60
2022/09/12 03:07:43;;;;;;;10.20;3.90;;;;;;;16.92;57.46;98521.04;25051;1313;3055246;-61
2022/09/12 03:10:12;;;;;;;13.80;4.30;;;;;;;16.76;57.53;98515.23;25096;1313;3055919;-60
2022/09/12 03:13:24;;;;;;;18.90;4.70;;;;;;;16.65;57.81;98517.16;25082;1313;3026407;-61
2022/09/12 03:15:58;;;;;;;16.40;5.40;;;;;;;16.52;57.09;98517.43;24938;1318;3055610;-62
2022/09/12 03:18:40;;;;;;;11.60;5.00;;;;;;;16.39;56.48;98520.47;24973;1318;3054329;-64
2022/09/12 03:21:17;;;;;;;22.70;5.70;;;;;;;16.27;55.71;98520.08;25017;1313;3069331;-61
2022/09/12 03:24:04;;;;;;;17.40;6.40;;;;;;;16.21;55.91;98518.20;25094;1316;3049253;-63
2022/09/12 03:26:37;;;;;;;22.10;7.60;;;;;;;16.12;55.46;98517.16;25105;1313;3052701;-62
2022/09/12 03:29:06;;;;;;;19.80;7.30;;;;;;;16.03;55.47;98513.42;25089;1313;3026768;-63
2022/09/12 03:31:47;;;;;;;23.40;7.40;;;;;;;15.95;55.59;98516.02;25103;1316;3027905;-61
2022/09/12 03:34:16;;;;;;;24.00;8.90;;;;;;;15.94;55.60;98515.73;25085;1316;3052221;-62
2022/09/12 03:36:45;;;;;;;25.60;9.60;;;;;;;15.90;55.66;98514.20;25171;1312;3026391;-60
2022/09/12 03:39:15;;;;;;;20.90;11.10;;;;;;;15.83;55.70;98515.88;25055;1312;3026623;-62
2022/09/12 03:41:44;;;;;;;25.20;9.80;;;;;;;15.80;55.56;98514.44;25101;1313;3048510;-61
2022/09/12 03:44:13;;;;;;;19.10;9.70;;;;;;;15.80;55.28;98517.96;25063;1313;3026632;-61
2022/09/12 03:46:42;;;;;;;26.50;8.90;;;;;;;15.80;55.09;98514.59;25089;1313;3057028;-62
2022/09/12 03:49:11;;;;;;;25.00;9.00;;;;;;;15.78;55.17;98521.30;25038;1313;3026849;-62
2022/09/12 03:51:41;;;;;;;19.50;7.90;;;;;;;15.76;55.07;98520.92;25095;1313;3054457;-62
2022/09/12 03:54:10;;;;;;;29.70;10.20;;;;;;;15.76;54.95;98519.34;25051;1313;3026509;-62
2022/09/12 03:56:40;;;;;;;19.50;9.40;;;;;;;15.75;55.15;98514.50;25119;1312;3026948;-62
2022/09/12 03:59:09;;;;;;;29.70;10.10;;;;;;;15.77;55.32;98513.32;25148;1313;3026544;-62
2022/09/12 04:01:40;;;;;;;27.20;10.70;;;;;;;15.80;54.88;98512.12;25080;1313;3026495;-62
2022/09/12 04:04:10;;;;;;;30.80;11.30;;;;;;;15.84;55.05;98508.77;25084;1312;3027183;-62
2022/09/12 04:06:40;;;;;;;24.70;11.60;;;;;;;15.83;55.29;98501.58;25029;1316;3026846;-64
2022/09/12 04:09:09;;;;;;;26.20;12.00;;;;;;;15.85;55.48;98506.19;25087;1313;3053499;-61
2022/09/12 04:11:38;;;;;;;27.80;11.70;;;;;;;15.86;56.29;98516.13;25083;1313;3030238;-62
2022/09/12 04:14:07;;;;;;;34.10;14.00;;;;;;;15.88;56.35;98520.19;25135;1313;3055137;-62
2022/09/12 04:16:36;;;;;;;28.00;11.90;;;;;;;15.89;56.74;98524.89;25050;1313;3026573;-62
2022/09/12 04:19:06;;;;;;;34.70;13.10;;;;;;;15.92;56.55;98526.64;25091;1313;3052101;-64
2022/09/12 04:21:35;;;;;;;30.90;13.20;;;;;;;15.98;56.09;98523.96;25065;1313;3026645;-61
2022/09/12 04:24:04;;;;;;;59.20;19.50;;;;;;;16.10;55.76;98511.54;25102;1313;3057867;-62
2022/09/12 04:26:33;;;;;;;75.60;28.70;;;;;;;16.21;56.25;98514.86;25097;1313;3026995;-64
2022/09/12 04:29:02;;;;;;;117.70;40.90;;;;;;;16.25;56.18;98519.70;25064;1313;3026365;-62
2022/09/12 04:31:31;;;;;;;65.20;23.00;;;;;;;16.26;56.53;98529.04;25091;1316;3058831;-62
2022/09/12 04:34:01;;;;;;;54.30;21.80;;;;;;;16.21;57.14;98534.30;25055;1313;3026389;-60
2022/09/12 04:36:30;;;;;;;63.90;25.00;;;;;;;16.21;57.28;98535.14;25083;1315;3054321;-63
2022/09/12 04:38:59;;;;;;;70.60;26.10;;;;;;;16.31;56.76;98532.37;25059;1313;3026227;-63
2022/09/12 04:41:31;;;;;;;52.20;21.00;;;;;;;16.38;56.60;98526.98;25058;1316;3053290;-64
2022/09/12 04:44:05;;;;;;;51.20;21.20;;;;;;;16.42;56.63;98520.30;25061;1313;3027333;-64
2022/09/12 04:46:37;;;;;;;53.00;19.70;;;;;;;16.47;56.75;98519.68;25057;1313;3058754;-64
2022/09/12 04:49:06;;;;;;;50.70;18.90;;;;;;;16.46;57.27;98512.38;25079;1313;3027235;-63
2022/09/12 04:51:37;;;;;;;45.70;16.70;;;;;;;16.52;57.68;98509.96;25087;1313;3026632;-64
2022/09/12 04:54:17;;;;;;;47.40;18.30;;;;;;;16.60;57.85;98506.88;25119;1313;3026029;-64
2022/09/12 04:56:47;;;;;;;52.20;19.70;;;;;;;16.66;58.16;98507.74;25051;1313;3069328;-64
2022/09/12 04:59:18;;;;;;;52.10;19.60;;;;;;;16.71;58.11;98514.68;25042;1313;3026895;-65
2022/09/12 05:01:47;;;;;;;46.50;18.50;;;;;;;16.77;58.74;98515.30;25141;1316;3026524;-63
2022/09/12 05:04:17;;;;;;;39.20;15.40;;;;;;;16.79;58.75;98522.13;25041;1313;3026556;-64
2022/09/12 05:06:47;;;;;;;36.90;15.50;;;;;;;16.79;59.05;98525.53;25063;1313;3050407;-62
2022/09/12 05:09:16;;;;;;;33.60;13.10;;;;;;;16.82;59.07;98529.27;25108;1313;3026289;-62
2022/09/12 05:11:45;;;;;;;35.40;13.90;;;;;;;16.85;59.08;98526.50;25026;1313;3071011;-61
2022/09/12 05:14:15;;;;;;;36.00;14.10;;;;;;;16.87;59.16;98531.05;25063;1313;3027257;-63
2022/09/12 05:16:44;;;;;;;37.60;13.80;;;;;;;16.87;59.74;98534.30;25111;1313;3026588;-61
2022/09/12 05:19:11;;;;;;;37.60;13.80;;;;;;;16.81;59.68;98539.95;24510;1313;3070230;-63
2022/09/12 05:21:41;;;;;;;36.40;16.10;;;;;;;16.91;59.07;98539.86;25016;1316;3055852;-62
2022/09/12 05:24:10;;;;;;;34.70;13.00;;;;;;;17.08;58.92;98536.88;25129;1316;3026425;-62
2022/09/12 05:26:39;;;;;;;34.80;12.90;;;;;;;17.00;59.20;98534.04;25100;1316;3051885;-62
2022/09/12 05:29:08;;;;;;;44.00;12.30;;;;;;;16.98;59.42;98528.27;25117;1313;3026925;-63
2022/09/12 05:31:38;;;;;;;35.70;12.80;;;;;;;16.98;59.77;98524.63;25097;1313;3058773;-63
2022/09/12 05:34:08;;;;;;;39.00;11.30;;;;;;;17.02;59.70;98521.96;25076;1313;3026359;-62
2022/09/12 05:36:37;;;;;;;32.40;11.50;;;;;;;17.08;59.73;98522.95;25088;1319;3052063;-61
2022/09/12 05:39:06;;;;;;;37.10;12.40;;;;;;;17.13;59.83;98526.65;25062;1313;3026558;-61
2022/09/12 05:41:35;;;;;;;24.40;10.90;;;;;;;17.18;59.85;98525.31;25106;1316;3051694;-61
2022/09/12 05:44:10;;;;;;;28.70;11.40;;;;;;;17.25;59.82;98520.35;25117;1313;3026513;-61
2022/09/12 05:46:42;;;;;;;34.60;10.90;;;;;;;17.29;60.21;98524.88;25076;1313;3027531;-63
2022/09/12 05:49:12;;;;;;;40.00;12.70;;;;;;;17.32;60.02;98526.04;25116;1313;3026532;-63
2022/09/12 05:51:43;;;;;;;42.20;13.30;;;;;;;17.36;58.99;98521.02;25059;1313;3026688;-61
2022/09/12 05:54:14;;;;;;;43.50;13.60;;;;;;;17.40;58.53;98515.77;25105;1313;3027181;-63
2022/09/12 05:56:44;;;;;;;56.60;16.10;;;;;;;17.41;58.24;98516.52;25076;1313;3026967;-61
2022/09/12 05:59:17;;;;;;;45.00;15.40;;;;;;;17.43;58.94;98513.98;25058;1313;3026755;-61
2022/09/12 06:01:47;;;;;;;51.30;16.80;;;;;;;17.47;58.53;98515.80;25100;1313;3051903;-60
2022/09/12 06:04:16;;;;;;;51.70;16.50;;;;;;;17.51;58.44;98513.71;25064;1313;3026563;-61
2022/09/12 06:06:45;;;;;;;54.40;17.30;;;;;;;17.54;58.69;98512.28;25077;1313;3026812;-61
2022/09/12 06:09:15;;;;;;;49.00;16.00;;;;;;;17.64;58.38;98511.27;25111;1313;3050302;-61
2022/09/12 06:11:44;;;;;;;53.70;15.30;;;;;;;17.74;58.05;98510.95;25163;1313;3026745;-61
2022/09/12 06:14:14;;;;;;;51.50;16.20;;;;;;;17.82;58.54;98514.83;25142;1313;3026153;-62
2022/09/12 06:16:43;;;;;;;41.70;15.60;;;;;;;17.84;58.45;98514.70;25186;1313;3027976;-62
2022/09/12 06:19:17;;;;;;;47.40;16.20;;;;;;;17.85;59.23;98512.96;25097;1313;3026954;-63
2022/09/12 06:21:48;;;;;;;52.10;16.30;;;;;;;17.85;59.24;98519.58;25157;1313;3050589;-63
2022/09/12 06:24:17;;;;;;;49.40;16.90;;;;;;;17.90;58.71;98527.89;25149;1313;3025974;-66
2022/09/12 06:26:47;;;;;;;44.10;15.70;;;;;;;17.93;58.71;98530.61;25102;1313;3027649;-62
2022/09/12 06:29:17;;;;;;;51.20;17.80;;;;;;;17.97;59.06;98533.60;25116;1313;3048757;-61
2022/09/12 06:31:46;;;;;;;54.50;15.40;;;;;;;17.96;59.41;98532.65;25043;1313;3026287;-61
2022/09/12 06:34:16;;;;;;;52.20;16.10;;;;;;;17.96;59.27;98533.64;25121;1313;3026871;-61
2022/09/12 06:36:46;;;;;;;43.80;15.30;;;;;;;17.97;59.37;98533.78;25080;1313;3050457;-62
2022/09/12 06:39:16;;;;;;;54.30;14.90;;;;;;;17.95;59.34;98535.36;25131;1313;3026413;-64
2022/09/12 06:41:47;;;;;;;41.30;12.80;;;;;;;17.89;59.59;98536.48;25143;1313;3026455;-61
2022/09/12 06:44:20;;;;;;;37.10;12.90;;;;;;;17.94;59.34;98539.68;25145;1313;3027219;-63
2022/09/12 06:46:49;;;;;;;37.40;12.40;;;;;;;17.99;59.19;98539.73;25075;1313;3026687;-62
2022/09/12 06:49:18;;;;;;;32.50;11.00;;;;;;;18.02;59.38;98540.17;25109;1313;3026994;-63
2022/09/12 06:51:47;;;;;;;28.70;10.70;;;;;;;18.12;58.89;98540.16;25066;1313;3057809;-62
2022/09/12 06:54:16;;;;;;;33.20;12.40;;;;;;;18.18;58.80;98538.12;25122;1313;3026393;-62
2022/09/12 06:56:45;;;;;;;30.30;12.30;;;;;;;18.23;58.99;98538.46;25147;1313;3054902;-60
2022/09/12 06:59:14;;;;;;;34.40;12.70;;;;;;;18.27;59.34;98541.55;25103;1313;3025862;-63
2022/09/12 07:01:43;;;;;;;36.90;11.60;;;;;;;18.29;59.64;98537.20;25120;1312;3054549;-64
2022/09/12 07:04:12;;;;;;;29.20;10.40;;;;;;;18.33;59.49;98541.83;25051;1313;3026730;-63
2022/09/12 07:06:43;;;;;;;34.50;10.10;;;;;;;18.35;59.69;98539.27;25158;1313;3050957;-62
2022/09/12 07:09:15;;;;;;;28.70;9.80;;;;;;;18.35;59.68;98539.14;25075;1313;3026467;-64
2022/09/12 07:11:44;;;;;;;30.90;10.30;;;;;;;18.35;60.13;98542.80;25112;1313;3028904;-62
2022/09/12 07:14:13;;;;;;;29.50;10.30;;;;;;;18.37;59.64;98541.77;25060;1312;3028838;-62
2022/09/12 07:16:42;;;;;;;34.20;10.80;;;;;;;18.38;59.77;98538.45;25095;1313;3026699;-63
2022/09/12 07:19:12;;;;;;;30.00;11.30;;;;;;;18.38;59.88;98530.80;25188;1313;3053014;-62
2022/09/12 07:21:41;;;;;;;30.50;12.10;;;;;;;18.43;59.76;98536.78;25098;1313;3026859;-63
2022/09/12 07:24:10;;;;;;;34.40;12.10;;;;;;;18.45;59.86;98541.23;25171;1313;3053129;-62
2022/09/12 07:26:40;;;;;;;29.90;11.30;;;;;;;18.48;60.11;98544.66;25104;1313;3026889;-63
2022/09/12 07:29:15;;;;;;;29.60;11.30;;;;;;;18.53;60.09;98547.75;25199;1313;3049212;-61
2022/09/12 07:31:44;;;;;;;27.60;9.20;;;;;;;18.55;60.54;98544.89;25147;1312;3054515;-61
2022/09/12 07:34:14;;;;;;;29.80;8.90;;;;;;;18.59;60.84;98546.02;25139;1313;3027183;-62
2022/09/12 07:36:43;;;;;;;28.60;10.00;;;;;;;18.67;60.86;98545.02;25121;1313;3026232;-64
2022/09/12 07:39:12;;;;;;;31.60;9.20;;;;;;;18.69;60.96;98540.43;25147;1313;3054579;-63
2022/09/12 07:41:41;;;;;;;28.00;8.80;;;;;;;18.65;60.62;98546.67;25109;1313;3027212;-62
2022/09/12 07:44:10;;;;;;;25.40;7.00;;;;;;;18.53;61.13;98545.13;25120;1313;3026777;-63
2022/09/12 07:46:40;;;;;;;10.80;5.10;;;;;;;18.35;59.61;98549.08;25486;1313;3054983;-64
2022/09/12 07:49:10;;;;;;;17.00;4.70;;;;;;;18.12;60.19;98550.27;25269;1313;3029486;-63
2022/09/12 07:51:40;;;;;;;23.10;5.30;;;;;;;17.95;60.53;98551.13;25123;1313;3049718;-63
2022/09/12 07:54:09;;;;;;;20.70;5.20;;;;;;;17.85;61.21;98550.40;25152;1313;3026895;-63
2022/09/12 07:56:39;;;;;;;12.50;5.10;;;;;;;17.83;61.53;98553.80;25071;1313;3071269;-62
2022/09/12 07:59:09;;;;;;;16.20;5.20;;;;;;;17.62;62.09;98546.35;25095;1311;3026880;-62
2022/09/12 08:01:38;;;;;;;12.10;6.10;;;;;;;17.63;61.95;98539.07;25192;1313;3026854;-63
2022/09/12 08:04:08;;;;;;;16.40;5.50;;;;;;;17.58;62.16;98530.89;25133;1316;3071174;-65
2022/09/12 08:06:37;;;;;;;12.70;5.30;;;;;;;17.47;62.22;98528.66;25110;1313;3027341;-62
2022/09/12 08:09:06;;;;;;;22.70;5.40;;;;;;;17.51;61.59;98529.74;25125;1313;3053127;-63
2022/09/12 08:11:36;;;;;;;19.20;5.60;;;;;;;17.54;61.41;98536.09;25101;1313;3026809;-64
2022/09/12 08:14:30;;;;;;;23.00;5.10;;;;;;;17.56;61.49;98540.63;25130;1313;3051557;-63
2022/09/12 08:16:59;;;;;;;16.20;5.40;;;;;;;17.50;61.98;98538.83;25481;1313;3026162;-63
2022/09/12 08:19:28;;;;;;;12.40;5.30;;;;;;;17.44;62.42;98536.39;25147;1313;3069166;-64
2022/09/12 08:21:57;;;;;;;13.70;5.70;;;;;;;17.51;62.29;98534.96;25110;1313;3026733;-62
2022/09/12 08:24:26;;;;;;;18.10;6.40;;;;;;;17.56;62.43;98536.11;25145;1313;3053751;-63
2022/09/12 08:26:55;;;;;;;13.80;6.60;;;;;;;17.60;61.84;98533.33;25119;1313;3026686;-63
2022/09/12 08:29:24;;;;;;;15.90;6.20;;;;;;;17.61;61.85;98527.39;25156;1313;3055029;-63
2022/09/12 08:31:53;;;;;;;14.70;6.30;;;;;;;17.69;61.78;98525.35;25116;1313;3026637;-63
2022/09/12 08:34:23;;;;;;;20.40;6.50;;;;;;;17.75;61.77;98520.61;25076;1313;3052106;-63
2022/09/12 08:36:53;;;;;;;11.40;5.90;;;;;;;17.87;61.45;98520.28;25085;1313;3026322;-63
2022/09/12 08:39:23;;;;;;;16.70;6.20;;;;;;;18.02;60.63;98513.06;25138;1313;3027376;-64
2022/09/12 08:42:01;;;;;;;22.50;6.20;;;;;;;18.12;60.62;98509.69;25094;1313;3026344;-64
2022/09/12 08:44:49;;;;;;;11.40;5.70;;;;;;;18.20;60.59;98507.66;25165;1313;3049963;-62
2022/09/12 08:47:31;;;;;;;14.50;5.50;;;;;;;18.34;60.49;98503.98;25066;1313;3055303;-63
2022/09/12 08:50:07;;;;;;;12.60;4.60;;;;;;;18.42;59.73;98501.31;25073;1313;3052920;-64
2022/09/12 08:52:43;;;;;;;15.80;4.80;;;;;;;18.45;59.33;98494.20;25119;1313;3058749;-62
2022/09/12 08:55:35;;;;;;;14.20;5.00;;;;;;;18.52;58.65;98491.77;25160;1313;3050253;-63
2022/09/12 08:58:19;;;;;;;13.60;4.90;;;;;;;18.53;58.65;98491.20;25130;1313;3055251;-62
2022/09/12 09:00:57;;;;;;;12.40;5.50;;;;;;;18.60;58.50;98490.83;25190;1313;3051379;-63
2022/09/12 09:03:44;;;;;;;15.20;4.90;;;;;;;18.58;58.64;98486.77;25175;1312;3069161;-63
2022/09/12 09:07:13;;;;;;;13.20;5.20;;;;;;;18.60;59.34;98480.88;25138;1313;3051974;-64
2022/09/12 09:09:58;;;;;;;14.70;4.60;;;;;;;18.78;58.74;98476.98;25131;1313;3052122;-62
2022/09/12 09:12:51;;;;;;;10.10;5.20;;;;;;;18.88;58.50;98473.77;25093;1313;3056044;-63
2022/09/12 09:15:24;;;;;;;11.80;4.70;;;;;;;19.03;57.81;98473.16;25142;1313;3056912;-63
2022/09/12 09:17:59;;;;;;;8.90;4.80;;;;;;;19.15;57.60;98474.34;25109;1313;3026409;-63
2022/09/12 09:20:54;;;;;;;11.50;4.60;;;;;;;19.27;57.45;98472.46;25135;1313;3052380;-64
2022/09/12 09:23:42;;;;;;;10.90;4.90;;;;;;;19.33;57.40;98472.98;25118;1313;3053798;-63
2022/09/12 09:26:39;;;;;;;13.70;5.30;;;;;;;19.46;57.38;98469.64;25148;1313;3069935;-64
2022/09/12 09:29:13;;;;;;;14.20;6.00;;;;;;;19.58;56.69;98460.86;25122;1313;3049032;-63
2022/09/12 09:32:32;;;;;;;16.90;5.60;;;;;;;19.87;56.19;98456.09;25070;1313;3056596;-64
2022/09/12 09:35:11;;;;;;;9.90;5.40;;;;;;;20.13;56.03;98457.74;25082;1313;3052555;-64
2022/09/12 09:37:42;;;;;;;13.80;6.10;;;;;;;20.45;55.35;98465.60;25079;1313;3056191;-62
2022/09/12 09:40:22;;;;;;;15.50;5.80;;;;;;;20.69;54.91;98470.50;25070;1313;3026807;-62
2022/09/12 09:42:54;;;;;;;11.50;6.20;;;;;;;21.00;53.82;98473.30;25107;1313;3055317;-62
2022/09/12 09:45:24;;;;;;;15.30;6.30;;;;;;;21.02;53.77;98472.84;25115;1313;3026105;-63
2022/09/12 09:48:02;;;;;;;15.00;6.70;;;;;;;21.21;53.18;98472.02;25025;1311;3026926;-63
2022/09/12 09:50:31;;;;;;;11.50;6.20;;;;;;;21.35;53.05;98471.64;25076;1313;3051520;-63
2022/09/12 09:53:01;;;;;;;12.50;6.60;;;;;;;21.32;53.05;98471.85;25097;1313;3026601;-69
2022/09/12 09:55:33;;;;;;;11.60;6.40;;;;;;;21.27;53.40;98465.79;25134;1313;3069046;-63
2022/09/12 09:58:02;;;;;;;14.80;6.90;;;;;;;21.33;53.69;98464.21;25167;1313;3026834;-64
2022/09/12 10:00:33;;;;;;;15.60;7.80;;;;;;;21.44;53.49;98462.66;25088;1313;3026594;-60
2022/09/12 10:03:03;;;;;;;9.90;7.10;;;;;;;21.44;53.63;98460.85;25073;1313;3027231;-65
2022/09/12 10:05:56;;;;;;;13.50;6.90;;;;;;;21.55;53.25;98458.20;25131;1313;3025943;-64
2022/09/12 10:08:28;;;;;;;13.70;6.60;;;;;;;21.64;52.74;98456.14;25120;1313;3050054;-62
2022/09/12 10:11:01;;;;;;;16.60;7.30;;;;;;;21.70;52.31;98453.83;25084;1313;3026480;-63
2022/09/12 10:13:49;;;;;;;13.00;6.20;;;;;;;21.77;52.15;98446.56;25082;1313;3053513;-62
2022/09/12 10:16:20;;;;;;;11.60;5.80;;;;;;;21.88;52.08;98442.94;25088;1313;3071651;-65
2022/09/12 10:18:51;;;;;;;12.80;5.60;;;;;;;22.00;52.20;98440.65;25197;1313;3026752;-65
2022/09/12 10:21:20;;;;;;;11.40;5.40;;;;;;;22.09;52.25;98443.98;25131;1313;3027033;-65
2022/09/12 10:23:52;;;;;;;9.30;5.20;;;;;;;22.07;52.47;98445.94;25151;1313;3027357;-64
2022/09/12 10:26:21;;;;;;;13.20;5.20;;;;;;;22.10;52.46;98451.35;25097;1313;3026580;-65
2022/09/12 10:28:52;;;;;;;12.00;5.10;;;;;;;22.09;52.42;98449.30;25221;1312;3026078;-64
2022/09/12 10:31:28;;;;;;;12.10;5.20;;;;;;;22.12;52.24;98452.00;25113;1313;3052419;-64
2022/09/12 10:33:58;;;;;;;17.50;5.90;;;;;;;22.07;52.39;98458.20;25076;1313;3058684;-63
2022/09/12 10:36:35;;;;;;;12.80;4.80;;;;;;;22.06;52.69;98459.15;25090;1313;3027496;-64
2022/09/12 10:39:04;;;;;;;9.80;4.80;;;;;;;22.11;52.18;98461.04;25068;1313;3056156;-65
2022/09/12 10:41:37;;;;;;;11.40;5.40;;;;;;;22.10;52.30;98459.38;25137;1313;3026233;-61
2022/09/12 10:44:08;;;;;;;15.40;6.10;;;;;;;22.24;51.88;98459.92;25126;1313;3049558;-62
2022/09/12 10:46:39;;;;;;;14.40;5.60;;;;;;;22.28;52.28;98458.92;25096;1313;3026885;-63
2022/09/12 10:49:25;;;;;;;14.50;5.40;;;;;;;22.26;52.26;98465.94;25169;1313;3026840;-63
2022/09/12 10:51:55;;;;;;;13.20;5.10;;;;;;;22.36;52.02;98469.34;25128;1312;3072802;-63
2022/09/12 10:54:25;;;;;;;12.10;5.70;;;;;;;22.60;51.40;98469.11;25065;1313;3026570;-63
2022/09/12 10:57:13;;;;;;;17.50;6.10;;;;;;;22.84;50.72;98470.83;25065;1316;3026412;-63
2022/09/12 11:00:02;;;;;;;19.60;5.90;;;;;;;23.07;50.30;98468.20;25095;1313;3052771;-67
2022/09/12 11:03:02;;;;;;;11.30;6.00;;;;;;;23.09;50.21;98474.81;25139;1313;3056506;-61
2022/09/12 11:05:51;;;;;;;14.90;5.40;;;;;;;22.91;50.19;98480.17;25173;1312;3052380;-62
2022/09/12 11:08:30;;;;;;;18.60;6.20;;;;;;;22.72;50.37;98478.30;25104;1313;3055828;-62
2022/09/12 11:11:09;;;;;;;17.10;5.50;;;;;;;22.51;51.33;98480.60;25141;1313;3051302;-63
2022/09/12 11:14:07;;;;;;;13.80;5.60;;;;;;;22.43;51.40;98476.94;25088;1313;3068683;-62
2022/09/12 11:16:46;;;;;;;15.80;6.20;;;;;;;22.39;51.47;98478.22;25060;1313;3052199;-64
2022/09/12 11:19:36;;;;;;;17.40;6.90;;;;;;;22.40;51.61;98476.34;25120;1313;3052544;-63
2022/09/12 11:22:25;;;;;;;20.80;6.70;;;;;;;22.35;51.87;98481.59;25170;1313;3053005;-62
2022/09/12 11:25:00;;;;;;;20.40;6.90;;;;;;;22.23;51.73;98485.76;25168;1313;3057862;-63
2022/09/12 11:27:56;;;;;;;17.00;6.90;;;;;;;22.20;51.85;98491.92;25069;1313;3050125;-63
2022/09/12 11:30:26;;;;;;;24.90;6.60;;;;;;;22.19;52.19;98490.73;25532;1313;3052606;-63
2022/09/12 11:32:55;;;;;;;22.70;8.30;;;;;;;22.16;52.40;98487.79;25062;1313;3026359;-63
2022/09/12 11:35:26;;;;;;;27.50;7.90;;;;;;;22.10;52.47;98481.88;25145;1313;3026757;-62
2022/09/12 11:38:03;;;;;;;16.80;6.30;;;;;;;22.10;52.29;98478.30;25084;1313;3052634;-62